FW6482 Weather Reports


Display with metric or nautical units.
time (UTC)temp
F
wind
direction
speed
MPH
gust
MPH
rain 1hr
in
rain 24hr
in
rain mn
in
humidity
%
barometer
mb
20240530104507 71 171 2.0 6.0 0.00 0.28 0.00 58 1003.4
20240530103004 71 80 1.0 8.0 0.00 0.28 0.00 57 1003.4
20240530101511 71 198 2.0 6.0 0.00 0.28 0.00 58 1003.5
20240530100001 71 238 1.0 10.0 0.00 0.28 0.00 60 1003.4
20240530094557 70 227 2.0 7.0 0.00 0.28 0.00 63 1003.4
20240530093053 69 282 1.0 5.0 0.00 0.28 0.00 70 1003.4
20240530091550 66 116 2.0 7.0 0.00 0.28 0.00 76 1003.5
20240530090051 63 230 1.0 8.0 0.00 0.28 0.00 82 1003.6
20240530084544 62 236 2.0 8.0 0.00 0.32 0.00 84 1003.5
20240530083037 61 234 1.0 4.0 0.00 0.32 0.00 86 1003.6
20240530081535 61 281 0.0 1.0 0.00 0.32 0.00 88 1003.5
20240530080035 60 281 0.0 4.0 0.00 0.32 0.00 88 1003.6
20240530074534 61 217 0.0 4.0 0.00 0.34 0.00 89 1003.5
20240530073054 61 217 0.0 2.0 0.00 0.34 0.00 89 1003.5
20240530071538 60 184 1.0 4.0 0.00 0.34 0.00 89 1003.4
20240530070032 60 184 0.0 4.0 0.00 0.34 0.00 90 1003.5
20240530064541 60 184 0.0 2.0 0.00 0.34 0.00 92 1003.4
20240530063033 59 184 0.0 2.0 0.00 0.34 0.00 93 1003.3
20240530061523 59 184 0.0 0.0 0.00 0.34 0.00 95 1003.2
20240530060022 58 184 0.0 1.0 0.00 0.34 0.00 96 1003.2
20240530054520 58 184 0.0 4.0 0.00 0.34 0.00 96 1003.2
20240530053017 57 184 1.0 4.0 0.00 0.34 0.00 96 1003.2
20240530051514 56 181 1.0 4.0 0.00 0.34 0.00 96 1003.1
20240530050015 55 181 0.0 4.0 0.00 0.34 0.00 96 1003.0
20240530044513 55 181 0.0 2.0 0.00 0.35 0.00 96 1002.9
20240530043013 55 181 0.0 0.0 0.00 0.35 0.00 96 1002.8
20240530041506 55 181 0.0 2.0 0.00 0.35 0.00 96 1002.8
20240530040008 55 181 0.0 0.0 0.00 0.35 0.00 96 1002.8
20240530034501 55 181 2.0 4.0 0.00 0.35 0.00 96 1002.8
20240530033101 55 180 0.0 0.0 0.00 0.35 0.00 96 1002.9
20240530031620 55 181 0.0 1.0 0.00 0.35 0.00 95 1002.9
20240530030059 55 181 0.0 4.0 0.00 0.35 0.00 95 1002.9
20240530024559 55 181 1.0 3.0 0.00 0.35 0.00 95 1002.9
20240530023057 55 181 2.0 5.0 0.00 0.35 0.00 95 1003.0
20240530021556 55 181 2.0 4.0 0.00 0.35 0.00 95 1003.2
20240530020118 55 180 1.0 4.0 0.00 0.35 0.00 95 1003.1
20240530014553 55 180 1.0 3.0 0.00 0.35 0.00 95 1003.2
20240530013056 55 180 1.0 3.0 0.00 0.35 0.00 95 1003.2
20240530011554 55 180 0.0 0.0 0.00 0.35 0.00 95 1003.3
20240530010051 54 180 0.0 0.0 0.00 0.35 0.00 95 1003.4
20240530004549 54 180 0.0 2.0 0.00 0.35 0.00 95 1003.4
20240530003050 54 180 0.0 0.0 0.00 0.35 0.00 95 1003.7
20240530001552 54 180 0.0 1.0 0.00 0.35 0.00 95 1003.7
20240530000049 54 180 2.0 3.0 0.00 0.35 0.00 95 1003.9
20240529234544 54 180 1.0 5.0 0.00 0.35 0.00 94 1004.1
20240529233043 54 180 1.0 3.0 0.00 0.35 0.00 94 1004.0
20240529231540 54 180 2.0 4.0 0.00 0.35 0.00 94 1004.3
20240529230042 54 180 1.0 4.0 0.00 0.35 0.00 94 1004.4
20240529224538 54 180 2.0 5.0 0.00 0.35 0.00 94 1004.6
20240529223037 54 179 3.0 7.0 0.00 0.35 0.00 94 1004.7
20240529221535 54 180 3.0 6.0 0.00 0.35 0.00 94 1005.0
20240529220032 55 180 2.0 6.0 0.01 0.35 0.00 94 1005.0
20240529214530 55 161 0.0 3.0 0.05 0.35 0.35 94 1005.0
20240529213028 55 161 2.0 6.0 0.09 0.35 0.35 93 1005.5
20240529211532 56 161 2.0 6.0 0.11 0.35 0.35 93 1005.5
20240529210045 56 150 2.0 8.0 0.13 0.34 0.34 93 1005.2
20240529204528 57 199 3.0 5.0 0.08 0.28 0.28 93 1005.7
20240529203024 57 216 4.0 8.0 0.05 0.26 0.26 92 1005.9
20240529201520 58 226 5.0 11.0 0.02 0.23 0.23 92 1006.1
20240529200019 58 218 4.0 12.0 0.01 0.21 0.21 91 1005.9
20240529194524 58 247 5.0 10.0 0.01 0.21 0.21 91 1005.7
20240529193024 59 232 4.0 9.0 0.01 0.21 0.21 91 1005.6
20240529191516 59 236 4.0 7.0 0.01 0.21 0.21 90 1005.5
20240529190014 59 213 4.0 7.0 0.00 0.20 0.20 89 1005.6
20240529184511 60 192 4.0 7.0 0.00 0.20 0.20 89 1005.8
20240529183010 60 208 3.0 7.0 0.00 0.20 0.20 89 1005.9
20240529181510 61 201 5.0 9.0 0.00 0.20 0.20 88 1006.0
20240529180009 61 196 4.0 7.0 0.00 0.20 0.20 89 1006.0
20240529174510 61 173 5.0 7.0 0.00 0.20 0.20 89 1006.0
20240529173007 61 141 2.0 5.0 0.00 0.20 0.20 90 1006.1
20240529171507 61 211 3.0 7.0 0.04 0.20 0.20 92 1006.2
20240529170006 60 176 2.0 5.0 0.07 0.21 0.20 92 1006.2
20240529164503 60 219 3.0 7.0 0.10 0.21 0.20 92 1006.2
20240529163001 59 233 3.0 12.0 0.11 0.21 0.20 90 1006.5
20240529161612 59 247 3.0 8.0 0.07 0.17 0.17 89 1006.8
20240529160103 60 251 3.0 9.0 0.04 0.14 0.13 87 1006.8
20240529154603 61 164 2.0 11.0 0.01 0.11 0.10 84 1006.8
20240529153058 63 262 1.0 7.0 0.00 0.10 0.09 82 1006.8
20240529151558 63 250 4.0 15.0 0.00 0.10 0.09 76 1006.7
20240529150057 63 248 5.0 11.0 0.00 0.10 0.09 79 1006.6
20240529144625 63 244 5.0 14.0 0.01 0.10 0.09 78 1006.6
20240529143054 63 221 6.0 16.0 0.01 0.10 0.09 80 1006.7
20240529141554 63 229 6.0 14.0 0.03 0.10 0.09 82 1006.8
20240529140058 64 220 4.0 13.0 0.03 0.10 0.09 81 1006.7
20240529134551 64 195 6.0 14.0 0.02 0.09 0.09 81 1006.9
20240529133052 64 214 5.0 10.0 0.02 0.09 0.09 82 1007.2
20240529131555 66 225 6.0 16.0 0.00 0.07 0.06 72 1007.1
20240529130104 68 207 9.0 17.0 0.00 0.07 0.06 63 1006.9
20240529124557 68 215 9.0 15.0 0.00 0.07 0.06 61 1007.0
20240529123055 69 218 9.0 19.0 0.00 0.07 0.06 60 1007.0
20240529121548 69 244 6.0 15.0 0.00 0.07 0.06 60 1007.2
20240529120042 68 205 6.0 12.0 0.00 0.07 0.06 62 1007.3
20240529114540 68 225 7.0 14.0 0.00 0.07 0.06 65 1007.5
20240529113037 67 275 8.0 19.0 0.00 0.07 0.06 67 1007.7
20240529111534 66 251 8.0 15.0 0.00 0.07 0.06 68 1007.9
20240529110032 65 205 4.0 17.0 0.00 0.07 0.06 74 1008.0